createdAt,value
2018-11-02T00:00:55.617Z,8.70
2018-11-02T00:05:36.141Z,8.80
2018-11-02T00:10:16.277Z,8.80
2018-11-02T00:14:56.512Z,8.80
2018-11-02T00:19:36.789Z,8.90
2018-11-02T00:24:16.776Z,8.90
2018-11-02T00:28:56.937Z,8.90
2018-11-02T00:33:36.941Z,8.90
2018-11-02T00:38:16.989Z,8.90
2018-11-02T00:42:57.099Z,8.90
2018-11-02T00:47:36.888Z,8.90
2018-11-02T00:52:16.767Z,8.90
2018-11-02T00:56:56.753Z,8.80
2018-11-02T01:01:37.560Z,8.80
2018-11-02T01:06:17.825Z,8.80
2018-11-02T01:10:57.948Z,8.70
2018-11-02T01:15:38.103Z,8.70
2018-11-02T01:20:17.819Z,8.50
2018-11-02T01:24:57.837Z,8.40
2018-11-02T01:29:37.932Z,8.30
2018-11-02T01:34:17.872Z,8.20
2018-11-02T01:38:57.832Z,8.10
2018-11-02T01:43:37.704Z,8.00
2018-11-02T01:48:17.492Z,8.00
2018-11-02T01:52:58.029Z,8.00
2018-11-02T01:57:38.152Z,7.90
2018-11-02T02:02:18.152Z,7.80
2018-11-02T02:06:58.280Z,7.70
2018-11-02T02:11:39.024Z,7.60
2018-11-02T02:16:19.837Z,7.50
2018-11-02T02:20:59.552Z,7.40
2018-11-02T02:25:39.325Z,7.30
2018-11-02T02:30:20.025Z,7.20
2018-11-02T02:35:00.576Z,7.20
2018-11-02T02:39:40.589Z,7.10
2018-11-02T02:44:20.558Z,7.00
2018-11-02T02:49:00.590Z,6.90
2018-11-02T02:53:41.004Z,6.70
2018-11-02T02:58:20.664Z,6.60
2018-11-02T03:03:00.585Z,6.40
2018-11-02T03:07:41.124Z,6.30
2018-11-02T03:12:21.005Z,6.20
2018-11-02T03:17:01.004Z,6.10
2018-11-02T03:21:41.687Z,5.90
2018-11-02T03:26:22.273Z,5.90
2018-11-02T03:31:02.178Z,5.90
2018-11-02T03:35:42.325Z,5.90
2018-11-02T03:40:22.786Z,6.00
2018-11-02T03:45:03.320Z,6.00
2018-11-02T03:49:43.939Z,6.10
2018-11-02T03:54:24.215Z,6.20
2018-11-02T03:59:05.368Z,6.10
2018-11-02T04:03:45.484Z,6.10
2018-11-02T04:08:25.542Z,6.10
2018-11-02T04:13:05.482Z,6.20
2018-11-02T04:17:45.684Z,6.30
2018-11-02T04:22:25.388Z,6.30
2018-11-02T04:27:06.229Z,6.40
2018-11-02T04:31:46.152Z,6.30
2018-11-02T04:36:26.009Z,6.20
2018-11-02T04:41:05.825Z,6.10
2018-11-02T04:45:46.385Z,6.00
2018-11-02T04:50:26.588Z,5.90
2018-11-02T04:55:07.281Z,5.80
2018-11-02T04:59:47.169Z,5.70
2018-11-02T05:04:28.072Z,5.70
2018-11-02T05:09:08.906Z,5.60
2018-11-02T05:13:48.940Z,5.50
2018-11-02T05:18:29.109Z,5.40
2018-11-02T05:23:09.400Z,5.30
2018-11-02T05:27:49.769Z,5.30
2018-11-02T05:32:30.347Z,5.20
2018-11-02T05:37:10.324Z,5.10
2018-11-02T05:41:50.177Z,5.00
2018-11-02T05:46:30.152Z,4.90
2018-11-02T05:51:10.064Z,4.80
2018-11-02T05:55:50.983Z,4.70
2018-11-02T06:00:32.237Z,4.60
2018-11-02T06:05:12.181Z,4.60
2018-11-02T06:09:52.400Z,4.60
2018-11-02T06:14:32.337Z,4.50
2018-11-02T06:19:12.128Z,4.40
2018-11-02T06:23:51.880Z,4.30
2018-11-02T06:28:31.968Z,4.20
2018-11-02T06:33:11.742Z,4.10
2018-11-02T06:37:51.485Z,4.10
2018-11-02T06:42:31.420Z,4.20
2018-11-02T06:47:11.265Z,4.10
2018-11-02T06:51:51.264Z,4.10
2018-11-02T06:56:31.092Z,4.50
2018-11-02T07:01:10.957Z,5.50
2018-11-02T07:05:51.016Z,6.60
2018-11-02T07:10:30.805Z,7.90
2018-11-02T07:15:10.503Z,9.10
2018-11-02T07:19:50.513Z,10.00
2018-11-02T07:24:30.453Z,10.60
2018-11-02T07:29:10.451Z,10.90
2018-11-02T07:33:50.374Z,10.80
2018-11-02T07:38:30.192Z,10.90
2018-11-02T07:43:10.187Z,11.90
2018-11-02T07:47:50.420Z,13.50
2018-11-02T07:52:30.248Z,15.20
2018-11-02T07:57:10.094Z,16.40
2018-11-02T08:01:50.042Z,16.90
2018-11-02T08:06:29.843Z,17.90
2018-11-02T08:11:09.631Z,18.30
2018-11-02T08:15:49.492Z,18.70
2018-11-02T08:20:29.399Z,17.70
2018-11-02T08:25:10.460Z,16.20
2018-11-02T08:29:50.424Z,14.40
2018-11-02T08:34:30.309Z,13.10
2018-11-02T08:39:11.584Z,12.50
2018-11-02T08:43:51.361Z,12.20
2018-11-02T08:48:31.224Z,11.80
2018-11-02T08:53:11.312Z,11.80
2018-11-02T08:57:51.177Z,11.50
2018-11-02T09:02:31.406Z,11.40
2018-11-02T09:07:11.377Z,11.50
2018-11-02T09:11:51.232Z,11.60
2018-11-02T09:16:32.055Z,11.70
2018-11-02T09:21:12.093Z,11.80
2018-11-02T09:25:52.124Z,12.60
2018-11-02T09:30:32.333Z,14.90
2018-11-02T09:35:12.909Z,15.10
2018-11-02T09:39:53.080Z,15.30
2018-11-02T09:44:32.811Z,15.20
2018-11-02T09:49:12.809Z,14.50
2018-11-02T09:53:52.791Z,13.80
2018-11-02T09:58:32.817Z,13.10
2018-11-02T10:03:12.650Z,12.60
2018-11-02T10:07:52.860Z,12.30
2018-11-02T10:12:32.762Z,12.30
2018-11-02T10:17:13.829Z,12.30
2018-11-02T10:21:53.759Z,12.50
2018-11-02T10:26:33.772Z,12.80
2018-11-02T10:31:13.959Z,13.30
2018-11-02T10:35:54.666Z,13.90
2018-11-02T10:40:34.667Z,14.20
2018-11-02T10:45:15.485Z,14.20
2018-11-02T10:49:55.544Z,14.30
2018-11-02T10:54:36.117Z,14.60
2018-11-02T10:59:15.976Z,14.70
2018-11-02T11:03:55.814Z,14.70
2018-11-02T11:08:36.942Z,14.60
2018-11-02T11:13:17.368Z,14.40
2018-11-02T11:17:57.105Z,14.30
2018-11-02T11:22:37.172Z,14.50
2018-11-02T11:27:17.852Z,14.50
2018-11-02T11:31:57.716Z,14.20
2018-11-02T11:36:38.321Z,14.30
2018-11-02T11:41:18.280Z,14.90
2018-11-02T11:45:58.214Z,15.30
2018-11-02T11:50:38.224Z,15.50
2018-11-02T11:55:18.456Z,15.30
2018-11-02T11:59:58.431Z,16.00
2018-11-02T12:04:38.451Z,16.20
2018-11-02T12:09:18.286Z,15.70
2018-11-02T12:13:58.188Z,15.30
2018-11-02T12:18:37.872Z,15.30
2018-11-02T12:23:17.802Z,15.20
2018-11-02T12:27:57.849Z,15.00
2018-11-02T12:32:37.788Z,14.60
2018-11-02T12:37:17.982Z,14.70
2018-11-02T12:41:58.559Z,14.90
2018-11-02T12:46:38.597Z,15.00
2018-11-02T12:51:18.384Z,14.90
2018-11-02T12:55:58.115Z,14.80
2018-11-02T13:00:37.996Z,14.60
2018-11-02T13:05:17.817Z,14.40
2018-11-02T13:09:57.793Z,14.10
2018-11-02T13:14:38.011Z,14.00
2018-11-02T13:19:18.458Z,13.90
2018-11-02T13:23:58.328Z,13.80
2018-11-02T13:28:38.744Z,13.60
2018-11-02T13:33:19.423Z,13.50
2018-11-02T13:38:00.236Z,13.40
2018-11-02T13:42:46.919Z,13.10
2018-11-02T13:47:27.427Z,12.80
2018-11-02T13:52:09.532Z,12.60
2018-11-02T13:56:49.692Z,12.50
2018-11-02T14:01:30.269Z,12.40
2018-11-02T14:06:13.209Z,12.50
2018-11-02T14:10:54.181Z,12.70
2018-11-02T14:15:34.833Z,12.90
2018-11-02T14:20:16.108Z,12.90
2018-11-02T14:24:56.939Z,12.80
2018-11-02T14:29:37.803Z,12.40
2018-11-02T14:34:22.137Z,12.10
2018-11-02T14:39:02.064Z,11.90
2018-11-02T14:43:41.924Z,11.60
2018-11-02T14:48:23.245Z,11.40
2018-11-02T14:53:03.120Z,11.10
2018-11-02T14:57:43.272Z,11.00
2018-11-02T15:02:23.137Z,10.90
2018-11-02T15:07:03.076Z,10.80
2018-11-02T15:11:43.152Z,10.70
2018-11-02T15:16:24.556Z,10.50
2018-11-02T15:21:05.000Z,10.30
2018-11-02T15:25:45.576Z,10.30
2018-11-02T15:30:27.820Z,10.20
2018-11-02T15:35:11.061Z,10.30
2018-11-02T15:39:51.412Z,10.30
2018-11-02T15:44:31.405Z,10.30
2018-11-02T15:49:11.248Z,10.30
2018-11-02T15:53:51.311Z,10.30
2018-11-02T15:58:32.613Z,10.20
2018-11-02T16:03:13.436Z,10.20
2018-11-02T16:07:53.869Z,10.10
2018-11-02T16:12:33.800Z,10.00
2018-11-02T16:17:14.706Z,10.00
2018-11-02T16:21:55.486Z,9.90
2018-11-02T16:26:35.738Z,9.90
2018-11-02T16:31:16.030Z,9.90
2018-11-02T16:35:57.288Z,9.90
2018-11-02T16:40:38.782Z,9.90
2018-11-02T16:45:19.789Z,9.80
2018-11-02T16:50:00.647Z,9.80
2018-11-02T16:54:41.701Z,9.70
2018-11-02T16:59:23.463Z,9.70
2018-11-02T17:04:03.453Z,9.60
2018-11-02T17:08:43.617Z,9.60
2018-11-02T17:13:23.391Z,9.50
2018-11-02T17:18:03.502Z,9.50
2018-11-02T17:22:44.389Z,9.30
2018-11-02T17:27:24.545Z,9.20
2018-11-02T17:32:04.310Z,9.20
2018-11-02T17:36:44.868Z,9.10
2018-11-02T17:41:24.817Z,9.10
2018-11-02T17:46:05.793Z,9.10
2018-11-02T17:50:46.345Z,9.00
2018-11-02T17:55:26.273Z,9.00
2018-11-02T18:00:08.365Z,9.00
2018-11-02T18:04:49.544Z,8.90
2018-11-02T18:09:30.097Z,9.00
2018-11-02T18:14:11.784Z,9.00
2018-11-02T18:18:51.646Z,9.00
2018-11-02T18:23:31.606Z,9.00
2018-11-02T18:28:11.558Z,9.00
2018-11-02T18:32:51.984Z,9.00
2018-11-02T18:37:32.245Z,9.00
2018-11-02T18:42:12.056Z,9.00
2018-11-02T18:46:52.557Z,8.90
2018-11-02T18:51:32.637Z,8.90
2018-11-02T18:56:12.549Z,8.90
2018-11-02T19:00:52.938Z,8.90
2018-11-02T19:05:35.722Z,8.90
2018-11-02T19:10:15.972Z,8.80
2018-11-02T19:14:56.325Z,8.70
2018-11-02T19:19:36.322Z,8.80
2018-11-02T19:24:16.698Z,8.80
2018-11-02T19:28:57.406Z,8.80
2018-11-02T19:33:37.312Z,8.80
2018-11-02T19:38:17.214Z,8.70
2018-11-02T19:42:57.445Z,8.70
2018-11-02T19:47:43.679Z,8.70
2018-11-02T19:52:23.824Z,8.60
2018-11-02T19:57:03.908Z,8.50
2018-11-02T20:01:44.345Z,8.50
2018-11-02T20:06:24.315Z,8.40
2018-11-02T20:11:04.320Z,8.40
2018-11-02T20:15:44.180Z,8.40
2018-11-02T20:20:24.412Z,8.40
2018-11-02T20:25:04.537Z,8.40
2018-11-02T20:29:45.001Z,8.40
2018-11-02T20:34:24.743Z,8.40
2018-11-02T20:39:07.373Z,8.40
2018-11-02T20:43:47.232Z,8.40
2018-11-02T20:48:29.414Z,8.40
2018-11-02T20:53:12.045Z,8.40
2018-11-02T20:57:52.008Z,8.40
2018-11-02T21:02:31.799Z,8.40
2018-11-02T21:07:12.041Z,8.40
2018-11-02T21:11:51.935Z,8.40
2018-11-02T21:16:31.954Z,8.40
2018-11-02T21:21:11.923Z,8.50
2018-11-02T21:25:53.144Z,8.40
2018-11-02T21:30:34.380Z,8.40
2018-11-02T21:35:16.065Z,8.40
2018-11-02T21:39:57.357Z,8.40
2018-11-02T21:44:38.044Z,8.40
2018-11-02T21:49:18.801Z,8.20
2018-11-02T21:53:58.572Z,8.20
2018-11-02T21:58:38.762Z,8.10
2018-11-02T22:03:19.147Z,8.10
2018-11-02T22:08:00.680Z,8.10
2018-11-02T22:12:41.702Z,8.00
2018-11-02T22:17:21.926Z,7.80
2018-11-02T22:22:01.761Z,7.60
2018-11-02T22:26:44.005Z,7.50
2018-11-02T22:31:24.061Z,7.30
2018-11-02T22:36:05.674Z,7.30
2018-11-02T22:40:46.448Z,7.20
2018-11-02T22:45:26.273Z,7.10
2018-11-02T22:50:06.976Z,7.00
2018-11-02T22:54:46.760Z,6.80
2018-11-02T22:59:26.612Z,6.70
2018-11-02T23:04:06.572Z,6.60
2018-11-02T23:08:47.571Z,6.40
2018-11-02T23:13:27.513Z,6.30
2018-11-02T23:18:07.601Z,6.20
2018-11-02T23:22:47.566Z,6.00
2018-11-02T23:27:27.484Z,5.90
2018-11-02T23:32:07.456Z,5.80
2018-11-02T23:36:47.864Z,5.70
2018-11-02T23:41:27.593Z,5.70
2018-11-02T23:46:08.294Z,5.60
2018-11-02T23:50:49.345Z,5.50
2018-11-02T23:55:29.354Z,5.40
